sensor_id;sensor_type;location;lat;lon;timestamp;P1;durP1;ratioP1;P2;durP2;ratioP2
9880;SDS011;4979;51.014;6.678;2022-07-06T00:01:17;3.67;;;1.80;;
9880;SDS011;4979;51.014;6.678;2022-07-06T00:03:45;3.10;;;2.08;;
9880;SDS011;4979;51.014;6.678;2022-07-06T00:06:11;4.38;;;2.25;;
9880;SDS011;4979;51.014;6.678;2022-07-06T00:08:37;3.25;;;2.00;;
9880;SDS011;4979;51.014;6.678;2022-07-06T00:11:04;4.95;;;2.55;;
9880;SDS011;4979;51.014;6.678;2022-07-06T00:13:29;3.92;;;1.80;;
9880;SDS011;4979;51.014;6.678;2022-07-06T00:15:55;4.07;;;2.05;;
9880;SDS011;4979;51.014;6.678;2022-07-06T00:18:21;3.38;;;1.98;;
9880;SDS011;4979;51.014;6.678;2022-07-06T00:20:46;5.28;;;2.28;;
9880;SDS011;4979;51.014;6.678;2022-07-06T00:23:12;2.42;;;2.22;;
9880;SDS011;4979;51.014;6.678;2022-07-06T00:25:38;6.47;;;2.15;;
9880;SDS011;4979;51.014;6.678;2022-07-06T00:28:04;3.90;;;2.25;;
9880;SDS011;4979;51.014;6.678;2022-07-06T00:30:29;4.15;;;2.17;;
9880;SDS011;4979;51.014;6.678;2022-07-06T00:32:55;3.72;;;2.20;;
9880;SDS011;4979;51.014;6.678;2022-07-06T00:35:23;6.53;;;2.38;;
9880;SDS011;4979;51.014;6.678;2022-07-06T00:37:49;3.22;;;2.10;;
9880;SDS011;4979;51.014;6.678;2022-07-06T00:40:15;4.40;;;2.45;;
9880;SDS011;4979;51.014;6.678;2022-07-06T00:42:41;5.82;;;2.33;;
9880;SDS011;4979;51.014;6.678;2022-07-06T00:45:09;2.80;;;1.98;;
9880;SDS011;4979;51.014;6.678;2022-07-06T00:47:36;4.10;;;2.30;;
9880;SDS011;4979;51.014;6.678;2022-07-06T00:50:04;5.47;;;2.20;;
9880;SDS011;4979;51.014;6.678;2022-07-06T00:52:43;4.18;;;2.70;;
9880;SDS011;4979;51.014;6.678;2022-07-06T00:55:11;7.07;;;2.88;;
9880;SDS011;4979;51.014;6.678;2022-07-06T00:57:38;4.65;;;2.10;;
9880;SDS011;4979;51.014;6.678;2022-07-06T01:00:05;3.95;;;2.15;;
9880;SDS011;4979;51.014;6.678;2022-07-06T01:02:33;3.70;;;2.03;;
9880;SDS011;4979;51.014;6.678;2022-07-06T01:04:59;4.18;;;2.08;;
9880;SDS011;4979;51.014;6.678;2022-07-06T01:07:25;6.95;;;1.83;;
9880;SDS011;4979;51.014;6.678;2022-07-06T01:09:51;5.22;;;2.30;;
9880;SDS011;4979;51.014;6.678;2022-07-06T01:12:16;5.75;;;1.90;;
9880;SDS011;4979;51.014;6.678;2022-07-06T01:14:43;2.58;;;2.13;;
9880;SDS011;4979;51.014;6.678;2022-07-06T01:17:09;4.45;;;2.05;;
9880;SDS011;4979;51.014;6.678;2022-07-06T01:19:35;4.13;;;2.22;;
9880;SDS011;4979;51.014;6.678;2022-07-06T01:22:01;2.63;;;2.00;;
9880;SDS011;4979;51.014;6.678;2022-07-06T01:24:27;6.78;;;2.58;;
9880;SDS011;4979;51.014;6.678;2022-07-06T01:26:53;4.40;;;2.25;;
9880;SDS011;4979;51.014;6.678;2022-07-06T01:29:19;4.20;;;2.33;;
9880;SDS011;4979;51.014;6.678;2022-07-06T01:31:48;2.75;;;2.08;;
9880;SDS011;4979;51.014;6.678;2022-07-06T01:34:16;4.80;;;2.00;;
9880;SDS011;4979;51.014;6.678;2022-07-06T01:36:42;5.63;;;2.50;;
9880;SDS011;4979;51.014;6.678;2022-07-06T01:39:09;3.47;;;2.20;;
9880;SDS011;4979;51.014;6.678;2022-07-06T01:41:35;5.55;;;2.35;;
9880;SDS011;4979;51.014;6.678;2022-07-06T01:44:01;4.97;;;2.60;;
9880;SDS011;4979;51.014;6.678;2022-07-06T01:46:28;1.98;;;1.60;;
9880;SDS011;4979;51.014;6.678;2022-07-06T01:48:53;5.20;;;2.20;;
9880;SDS011;4979;51.014;6.678;2022-07-06T01:51:19;3.35;;;2.05;;
9880;SDS011;4979;51.014;6.678;2022-07-06T01:53:45;2.92;;;2.38;;
9880;SDS011;4979;51.014;6.678;2022-07-06T01:56:11;4.68;;;2.88;;
9880;SDS011;4979;51.014;6.678;2022-07-06T01:58:37;2.97;;;2.00;;
9880;SDS011;4979;51.014;6.678;2022-07-06T02:01:07;4.93;;;2.50;;
9880;SDS011;4979;51.014;6.678;2022-07-06T02:03:34;4.57;;;2.70;;
9880;SDS011;4979;51.014;6.678;2022-07-06T02:05:59;3.35;;;2.20;;
9880;SDS011;4979;51.014;6.678;2022-07-06T02:08:25;5.30;;;2.33;;
9880;SDS011;4979;51.014;6.678;2022-07-06T02:10:51;4.53;;;2.90;;
9880;SDS011;4979;51.014;6.678;2022-07-06T02:13:16;4.88;;;2.80;;
9880;SDS011;4979;51.014;6.678;2022-07-06T02:15:42;2.90;;;2.22;;
9880;SDS011;4979;51.014;6.678;2022-07-06T02:18:07;3.58;;;2.50;;
9880;SDS011;4979;51.014;6.678;2022-07-06T02:20:33;5.95;;;2.53;;
9880;SDS011;4979;51.014;6.678;2022-07-06T02:22:58;6.22;;;2.40;;
9880;SDS011;4979;51.014;6.678;2022-07-06T02:25:24;3.85;;;2.50;;
9880;SDS011;4979;51.014;6.678;2022-07-06T02:27:50;3.50;;;2.40;;
9880;SDS011;4979;51.014;6.678;2022-07-06T02:30:15;3.75;;;2.28;;
9880;SDS011;4979;51.014;6.678;2022-07-06T02:32:41;4.65;;;2.65;;
9880;SDS011;4979;51.014;6.678;2022-07-06T02:35:07;6.30;;;2.45;;
9880;SDS011;4979;51.014;6.678;2022-07-06T02:37:33;3.95;;;2.30;;
9880;SDS011;4979;51.014;6.678;2022-07-06T02:39:58;5.00;;;2.60;;
9880;SDS011;4979;51.014;6.678;2022-07-06T02:42:24;4.95;;;2.88;;
9880;SDS011;4979;51.014;6.678;2022-07-06T02:44:52;3.22;;;2.70;;
9880;SDS011;4979;51.014;6.678;2022-07-06T02:47:18;2.60;;;2.40;;
9880;SDS011;4979;51.014;6.678;2022-07-06T02:49:44;3.78;;;2.53;;
9880;SDS011;4979;51.014;6.678;2022-07-06T02:52:09;6.60;;;2.60;;
9880;SDS011;4979;51.014;6.678;2022-07-06T02:54:35;4.50;;;2.80;;
9880;SDS011;4979;51.014;6.678;2022-07-06T02:57:00;4.72;;;2.42;;
9880;SDS011;4979;51.014;6.678;2022-07-06T02:59:26;3.33;;;2.75;;
9880;SDS011;4979;51.014;6.678;2022-07-06T03:01:52;3.65;;;2.60;;
9880;SDS011;4979;51.014;6.678;2022-07-06T03:04:17;7.03;;;2.65;;
9880;SDS011;4979;51.014;6.678;2022-07-06T03:06:43;6.03;;;2.85;;
9880;SDS011;4979;51.014;6.678;2022-07-06T03:09:08;5.03;;;2.80;;
9880;SDS011;4979;51.014;6.678;2022-07-06T03:11:34;4.65;;;2.90;;
9880;SDS011;4979;51.014;6.678;2022-07-06T03:14:02;6.10;;;2.80;;
9880;SDS011;4979;51.014;6.678;2022-07-06T03:16:28;4.13;;;2.35;;
9880;SDS011;4979;51.014;6.678;2022-07-06T03:18:54;3.17;;;2.72;;
9880;SDS011;4979;51.014;6.678;2022-07-06T03:21:20;4.28;;;2.53;;
9880;SDS011;4979;51.014;6.678;2022-07-06T03:23:45;7.30;;;2.95;;
9880;SDS011;4979;51.014;6.678;2022-07-06T03:26:11;5.97;;;2.72;;
9880;SDS011;4979;51.014;6.678;2022-07-06T03:28:36;3.33;;;2.65;;
9880;SDS011;4979;51.014;6.678;2022-07-06T03:31:02;10.50;;;3.08;;
9880;SDS011;4979;51.014;6.678;2022-07-06T03:33:27;3.50;;;2.50;;
9880;SDS011;4979;51.014;6.678;2022-07-06T03:35:53;2.97;;;2.65;;
9880;SDS011;4979;51.014;6.678;2022-07-06T03:38:18;3.50;;;2.60;;
9880;SDS011;4979;51.014;6.678;2022-07-06T03:40:44;4.70;;;3.35;;
9880;SDS011;4979;51.014;6.678;2022-07-06T03:43:10;4.85;;;3.10;;
9880;SDS011;4979;51.014;6.678;2022-07-06T03:45:35;8.27;;;2.95;;
9880;SDS011;4979;51.014;6.678;2022-07-06T03:48:01;5.70;;;2.90;;
9880;SDS011;4979;51.014;6.678;2022-07-06T03:50:26;6.38;;;3.25;;
9880;SDS011;4979;51.014;6.678;2022-07-06T03:52:52;3.60;;;2.90;;
9880;SDS011;4979;51.014;6.678;2022-07-06T03:55:18;3.20;;;2.90;;
9880;SDS011;4979;51.014;6.678;2022-07-06T03:57:43;5.18;;;2.85;;
9880;SDS011;4979;51.014;6.678;2022-07-06T04:00:09;7.35;;;2.95;;
9880;SDS011;4979;51.014;6.678;2022-07-06T04:02:35;4.85;;;3.10;;
9880;SDS011;4979;51.014;6.678;2022-07-06T04:05:01;7.20;;;3.08;;
9880;SDS011;4979;51.014;6.678;2022-07-06T04:07:26;5.03;;;2.92;;
9880;SDS011;4979;51.014;6.678;2022-07-06T04:09:52;3.80;;;2.67;;
9880;SDS011;4979;51.014;6.678;2022-07-06T04:12:17;7.57;;;3.33;;
9880;SDS011;4979;51.014;6.678;2022-07-06T04:14:43;2.97;;;2.65;;
9880;SDS011;4979;51.014;6.678;2022-07-06T04:17:09;7.22;;;2.60;;
9880;SDS011;4979;51.014;6.678;2022-07-06T04:19:53;8.05;;;3.25;;
9880;SDS011;4979;51.014;6.678;2022-07-06T04:22:19;5.82;;;2.78;;
9880;SDS011;4979;51.014;6.678;2022-07-06T04:24:44;4.55;;;2.47;;
9880;SDS011;4979;51.014;6.678;2022-07-06T04:27:10;4.93;;;2.42;;
9880;SDS011;4979;51.014;6.678;2022-07-06T04:29:36;4.82;;;2.85;;
9880;SDS011;4979;51.014;6.678;2022-07-06T04:32:01;6.07;;;2.88;;
9880;SDS011;4979;51.014;6.678;2022-07-06T04:34:27;5.85;;;2.60;;
9880;SDS011;4979;51.014;6.678;2022-07-06T04:36:53;4.00;;;2.70;;
9880;SDS011;4979;51.014;6.678;2022-07-06T04:39:18;2.60;;;2.40;;
9880;SDS011;4979;51.014;6.678;2022-07-06T04:41:44;3.70;;;2.63;;
9880;SDS011;4979;51.014;6.678;2022-07-06T04:44:09;5.07;;;2.75;;
9880;SDS011;4979;51.014;6.678;2022-07-06T04:46:35;7.50;;;2.78;;
9880;SDS011;4979;51.014;6.678;2022-07-06T04:49:01;7.55;;;2.85;;
9880;SDS011;4979;51.014;6.678;2022-07-06T04:51:26;5.53;;;2.85;;
9880;SDS011;4979;51.014;6.678;2022-07-06T04:53:52;5.18;;;2.60;;
9880;SDS011;4979;51.014;6.678;2022-07-06T04:56:18;3.75;;;2.33;;
9880;SDS011;4979;51.014;6.678;2022-07-06T04:58:43;4.18;;;2.38;;
9880;SDS011;4979;51.014;6.678;2022-07-06T05:01:09;5.00;;;2.60;;
9880;SDS011;4979;51.014;6.678;2022-07-06T05:03:35;4.15;;;2.25;;
9880;SDS011;4979;51.014;6.678;2022-07-06T05:06:04;5.03;;;2.50;;
9880;SDS011;4979;51.014;6.678;2022-07-06T05:08:30;9.68;;;2.47;;
9880;SDS011;4979;51.014;6.678;2022-07-06T05:10:56;5.72;;;2.47;;
9880;SDS011;4979;51.014;6.678;2022-07-06T05:13:21;2.78;;;2.38;;
9880;SDS011;4979;51.014;6.678;2022-07-06T05:15:47;5.57;;;2.40;;
9880;SDS011;4979;51.014;6.678;2022-07-06T05:18:13;5.53;;;2.20;;
9880;SDS011;4979;51.014;6.678;2022-07-06T05:20:38;8.65;;;2.90;;
9880;SDS011;4979;51.014;6.678;2022-07-06T05:23:04;9.10;;;2.72;;
9880;SDS011;4979;51.014;6.678;2022-07-06T05:25:30;7.25;;;3.25;;
9880;SDS011;4979;51.014;6.678;2022-07-06T05:27:56;5.18;;;2.50;;
9880;SDS011;4979;51.014;6.678;2022-07-06T05:30:22;7.57;;;2.60;;
9880;SDS011;4979;51.014;6.678;2022-07-06T05:32:47;8.02;;;2.60;;
9880;SDS011;4979;51.014;6.678;2022-07-06T05:35:13;5.05;;;2.97;;
9880;SDS011;4979;51.014;6.678;2022-07-06T05:37:38;10.65;;;3.35;;
9880;SDS011;4979;51.014;6.678;2022-07-06T05:40:04;8.77;;;3.65;;
9880;SDS011;4979;51.014;6.678;2022-07-06T05:42:30;6.93;;;3.00;;
9880;SDS011;4979;51.014;6.678;2022-07-06T05:44:56;9.63;;;2.92;;
9880;SDS011;4979;51.014;6.678;2022-07-06T05:47:22;8.90;;;2.63;;
9880;SDS011;4979;51.014;6.678;2022-07-06T05:50:06;5.35;;;2.78;;
9880;SDS011;4979;51.014;6.678;2022-07-06T05:52:38;9.82;;;3.05;;
9880;SDS011;4979;51.014;6.678;2022-07-06T05:55:09;4.75;;;2.33;;
9880;SDS011;4979;51.014;6.678;2022-07-06T05:57:36;7.80;;;3.30;;
9880;SDS011;4979;51.014;6.678;2022-07-06T06:00:03;5.97;;;2.67;;
9880;SDS011;4979;51.014;6.678;2022-07-06T06:02:39;9.88;;;2.88;;
9880;SDS011;4979;51.014;6.678;2022-07-06T06:05:07;6.03;;;2.92;;
9880;SDS011;4979;51.014;6.678;2022-07-06T06:07:34;12.52;;;3.03;;
9880;SDS011;4979;51.014;6.678;2022-07-06T06:10:01;5.72;;;3.50;;
9880;SDS011;4979;51.014;6.678;2022-07-06T06:12:31;8.60;;;3.20;;
9880;SDS011;4979;51.014;6.678;2022-07-06T06:14:57;9.77;;;3.25;;
9880;SDS011;4979;51.014;6.678;2022-07-06T06:17:23;5.72;;;3.03;;
9880;SDS011;4979;51.014;6.678;2022-07-06T06:19:48;7.70;;;3.50;;
9880;SDS011;4979;51.014;6.678;2022-07-06T06:22:14;6.30;;;3.15;;
9880;SDS011;4979;51.014;6.678;2022-07-06T06:24:40;6.40;;;3.58;;
9880;SDS011;4979;51.014;6.678;2022-07-06T06:27:06;11.90;;;3.70;;
9880;SDS011;4979;51.014;6.678;2022-07-06T06:29:32;7.75;;;3.72;;
9880;SDS011;4979;51.014;6.678;2022-07-06T06:31:58;6.13;;;3.08;;
9880;SDS011;4979;51.014;6.678;2022-07-06T06:34:23;10.95;;;3.28;;
9880;SDS011;4979;51.014;6.678;2022-07-06T06:36:49;4.35;;;2.78;;
9880;SDS011;4979;51.014;6.678;2022-07-06T06:39:15;9.18;;;3.10;;
9880;SDS011;4979;51.014;6.678;2022-07-06T06:41:41;9.05;;;3.47;;
9880;SDS011;4979;51.014;6.678;2022-07-06T06:44:07;7.43;;;2.92;;
9880;SDS011;4979;51.014;6.678;2022-07-06T06:46:32;7.85;;;2.83;;
9880;SDS011;4979;51.014;6.678;2022-07-06T06:48:58;6.28;;;2.83;;
9880;SDS011;4979;51.014;6.678;2022-07-06T06:51:24;14.25;;;2.22;;
9880;SDS011;4979;51.014;6.678;2022-07-06T06:53:49;5.32;;;1.67;;
9880;SDS011;4979;51.014;6.678;2022-07-06T06:56:15;6.93;;;1.88;;
9880;SDS011;4979;51.014;6.678;2022-07-06T06:58:41;10.23;;;1.80;;
9880;SDS011;4979;51.014;6.678;2022-07-06T07:01:07;5.28;;;1.80;;
9880;SDS011;4979;51.014;6.678;2022-07-06T07:03:34;5.53;;;1.60;;
9880;SDS011;4979;51.014;6.678;2022-07-06T07:05:59;4.03;;;2.05;;
9880;SDS011;4979;51.014;6.678;2022-07-06T07:08:25;9.45;;;2.10;;
9880;SDS011;4979;51.014;6.678;2022-07-06T07:10:51;5.32;;;1.80;;
9880;SDS011;4979;51.014;6.678;2022-07-06T07:13:16;5.97;;;1.60;;
9880;SDS011;4979;51.014;6.678;2022-07-06T07:15:42;5.32;;;1.50;;
9880;SDS011;4979;51.014;6.678;2022-07-06T07:18:08;4.78;;;1.40;;
9880;SDS011;4979;51.014;6.678;2022-07-06T07:20:34;1.65;;;1.38;;
9880;SDS011;4979;51.014;6.678;2022-07-06T07:23:00;5.18;;;1.45;;
9880;SDS011;4979;51.014;6.678;2022-07-06T07:25:26;5.20;;;1.38;;
9880;SDS011;4979;51.014;6.678;2022-07-06T07:27:52;2.70;;;1.58;;
9880;SDS011;4979;51.014;6.678;2022-07-06T07:30:18;4.88;;;1.45;;
9880;SDS011;4979;51.014;6.678;2022-07-06T07:32:46;3.05;;;1.33;;
9880;SDS011;4979;51.014;6.678;2022-07-06T07:35:11;6.55;;;1.33;;
9880;SDS011;4979;51.014;6.678;2022-07-06T07:37:37;7.03;;;1.67;;
9880;SDS011;4979;51.014;6.678;2022-07-06T07:40:03;2.72;;;1.20;;
9880;SDS011;4979;51.014;6.678;2022-07-06T07:42:30;4.53;;;1.50;;
9880;SDS011;4979;51.014;6.678;2022-07-06T07:44:57;5.47;;;1.55;;
9880;SDS011;4979;51.014;6.678;2022-07-06T07:47:23;3.85;;;1.20;;
9880;SDS011;4979;51.014;6.678;2022-07-06T07:49:49;2.15;;;1.27;;
9880;SDS011;4979;51.014;6.678;2022-07-06T07:52:15;1.90;;;1.38;;
9880;SDS011;4979;51.014;6.678;2022-07-06T07:54:40;6.07;;;1.25;;
9880;SDS011;4979;51.014;6.678;2022-07-06T07:57:06;8.65;;;1.45;;
9880;SDS011;4979;51.014;6.678;2022-07-06T07:59:32;4.28;;;1.83;;
9880;SDS011;4979;51.014;6.678;2022-07-06T08:01:58;4.82;;;1.27;;
9880;SDS011;4979;51.014;6.678;2022-07-06T08:04:24;5.05;;;1.30;;
9880;SDS011;4979;51.014;6.678;2022-07-06T08:06:50;3.05;;;1.15;;
9880;SDS011;4979;51.014;6.678;2022-07-06T08:09:16;4.03;;;1.50;;
9880;SDS011;4979;51.014;6.678;2022-07-06T08:11:43;3.45;;;1.48;;
9880;SDS011;4979;51.014;6.678;2022-07-06T08:14:09;3.38;;;1.08;;
9880;SDS011;4979;51.014;6.678;2022-07-06T08:16:35;2.35;;;1.15;;
9880;SDS011;4979;51.014;6.678;2022-07-06T08:19:00;2.72;;;1.30;;
9880;SDS011;4979;51.014;6.678;2022-07-06T08:21:26;5.05;;;1.20;;
9880;SDS011;4979;51.014;6.678;2022-07-06T08:23:52;2.90;;;1.15;;
9880;SDS011;4979;51.014;6.678;2022-07-06T08:26:19;4.63;;;1.30;;
9880;SDS011;4979;51.014;6.678;2022-07-06T08:28:45;3.42;;;1.45;;
9880;SDS011;4979;51.014;6.678;2022-07-06T08:31:11;2.33;;;1.10;;
9880;SDS011;4979;51.014;6.678;2022-07-06T08:33:37;3.85;;;1.55;;
9880;SDS011;4979;51.014;6.678;2022-07-06T08:36:06;4.40;;;1.60;;
9880;SDS011;4979;51.014;6.678;2022-07-06T08:38:32;3.65;;;1.38;;
9880;SDS011;4979;51.014;6.678;2022-07-06T08:40:57;2.38;;;1.38;;
9880;SDS011;4979;51.014;6.678;2022-07-06T08:43:23;3.45;;;1.55;;
9880;SDS011;4979;51.014;6.678;2022-07-06T08:45:49;2.20;;;1.30;;
9880;SDS011;4979;51.014;6.678;2022-07-06T08:48:18;2.67;;;1.30;;
9880;SDS011;4979;51.014;6.678;2022-07-06T08:50:46;2.47;;;1.20;;
9880;SDS011;4979;51.014;6.678;2022-07-06T08:53:12;4.05;;;1.55;;
9880;SDS011;4979;51.014;6.678;2022-07-06T08:55:37;3.92;;;1.70;;
9880;SDS011;4979;51.014;6.678;2022-07-06T08:58:05;6.30;;;1.80;;
9880;SDS011;4979;51.014;6.678;2022-07-06T09:00:32;2.30;;;1.40;;
9880;SDS011;4979;51.014;6.678;2022-07-06T09:02:58;4.75;;;1.25;;
9880;SDS011;4979;51.014;6.678;2022-07-06T09:05:25;1.75;;;1.15;;
9880;SDS011;4979;51.014;6.678;2022-07-06T09:07:52;7.90;;;1.40;;
9880;SDS011;4979;51.014;6.678;2022-07-06T09:10:19;4.85;;;1.48;;
9880;SDS011;4979;51.014;6.678;2022-07-06T09:12:46;2.75;;;1.33;;
9880;SDS011;4979;51.014;6.678;2022-07-06T09:15:13;9.63;;;1.70;;
9880;SDS011;4979;51.014;6.678;2022-07-06T09:17:40;3.70;;;1.33;;
9880;SDS011;4979;51.014;6.678;2022-07-06T09:20:09;4.57;;;1.45;;
9880;SDS011;4979;51.014;6.678;2022-07-06T09:22:37;2.22;;;1.30;;
9880;SDS011;4979;51.014;6.678;2022-07-06T09:25:10;3.08;;;1.55;;
9880;SDS011;4979;51.014;6.678;2022-07-06T09:27:38;5.78;;;1.75;;
9880;SDS011;4979;51.014;6.678;2022-07-06T09:30:06;7.18;;;1.58;;
9880;SDS011;4979;51.014;6.678;2022-07-06T09:32:38;4.63;;;1.35;;
9880;SDS011;4979;51.014;6.678;2022-07-06T09:37:56;1.10;;;0.98;;
9880;SDS011;4979;51.014;6.678;2022-07-06T09:40:32;2.88;;;1.33;;
9880;SDS011;4979;51.014;6.678;2022-07-06T09:43:09;2.58;;;1.23;;
9880;SDS011;4979;51.014;6.678;2022-07-06T09:45:45;3.80;;;1.17;;
9880;SDS011;4979;51.014;6.678;2022-07-06T09:48:14;4.15;;;1.42;;
9880;SDS011;4979;51.014;6.678;2022-07-06T09:50:57;5.60;;;1.20;;
9880;SDS011;4979;51.014;6.678;2022-07-06T09:53:34;5.63;;;1.52;;
9880;SDS011;4979;51.014;6.678;2022-07-06T09:56:00;2.10;;;1.05;;
9880;SDS011;4979;51.014;6.678;2022-07-06T09:58:27;4.05;;;1.30;;
9880;SDS011;4979;51.014;6.678;2022-07-06T10:00:53;4.00;;;1.20;;
9880;SDS011;4979;51.014;6.678;2022-07-06T10:03:19;4.20;;;1.77;;
9880;SDS011;4979;51.014;6.678;2022-07-06T10:05:45;3.20;;;1.25;;
9880;SDS011;4979;51.014;6.678;2022-07-06T10:08:15;4.30;;;1.30;;
9880;SDS011;4979;51.014;6.678;2022-07-06T10:10:42;1.60;;;1.08;;
9880;SDS011;4979;51.014;6.678;2022-07-06T10:13:09;3.67;;;1.13;;
9880;SDS011;4979;51.014;6.678;2022-07-06T10:15:36;2.53;;;1.30;;
9880;SDS011;4979;51.014;6.678;2022-07-06T10:18:05;3.90;;;1.25;;
9880;SDS011;4979;51.014;6.678;2022-07-06T10:20:35;1.75;;;1.20;;
9880;SDS011;4979;51.014;6.678;2022-07-06T10:23:03;1.58;;;1.20;;
9880;SDS011;4979;51.014;6.678;2022-07-06T10:25:30;5.28;;;1.15;;
9880;SDS011;4979;51.014;6.678;2022-07-06T10:27:58;4.55;;;1.50;;
9880;SDS011;4979;51.014;6.678;2022-07-06T10:30:24;2.38;;;1.25;;
9880;SDS011;4979;51.014;6.678;2022-07-06T10:32:51;2.60;;;1.45;;
9880;SDS011;4979;51.014;6.678;2022-07-06T10:35:20;3.10;;;1.30;;
9880;SDS011;4979;51.014;6.678;2022-07-06T10:38:02;3.03;;;1.30;;
9880;SDS011;4979;51.014;6.678;2022-07-06T10:40:36;1.85;;;1.25;;
9880;SDS011;4979;51.014;6.678;2022-07-06T10:43:30;4.28;;;1.30;;
9880;SDS011;4979;51.014;6.678;2022-07-06T10:45:57;5.05;;;1.30;;
9880;SDS011;4979;51.014;6.678;2022-07-06T10:48:23;5.90;;;1.30;;
9880;SDS011;4979;51.014;6.678;2022-07-06T10:50:53;4.50;;;1.45;;
9880;SDS011;4979;51.014;6.678;2022-07-06T10:53:26;2.75;;;1.30;;
9880;SDS011;4979;51.014;6.678;2022-07-06T10:55:56;7.15;;;1.70;;
9880;SDS011;4979;51.014;6.678;2022-07-06T10:58:41;2.83;;;1.50;;
9880;SDS011;4979;51.014;6.678;2022-07-06T11:01:17;4.90;;;1.27;;
9880;SDS011;4979;51.014;6.678;2022-07-06T11:03:47;3.03;;;1.25;;
9880;SDS011;4979;51.014;6.678;2022-07-06T11:06:15;3.97;;;1.20;;
9880;SDS011;4979;51.014;6.678;2022-07-06T11:08:51;5.25;;;1.25;;
9880;SDS011;4979;51.014;6.678;2022-07-06T11:11:18;3.50;;;1.35;;
9880;SDS011;4979;51.014;6.678;2022-07-06T11:13:48;7.68;;;1.67;;
9880;SDS011;4979;51.014;6.678;2022-07-06T11:16:24;2.95;;;1.50;;
9880;SDS011;4979;51.014;6.678;2022-07-06T11:19:01;1.30;;;1.05;;
9880;SDS011;4979;51.014;6.678;2022-07-06T11:21:38;7.07;;;1.20;;
9880;SDS011;4979;51.014;6.678;2022-07-06T11:24:12;3.25;;;1.17;;
9880;SDS011;4979;51.014;6.678;2022-07-06T11:26:45;3.15;;;1.30;;
9880;SDS011;4979;51.014;6.678;2022-07-06T11:29:13;4.55;;;1.65;;
9880;SDS011;4979;51.014;6.678;2022-07-06T11:31:40;6.22;;;1.80;;
9880;SDS011;4979;51.014;6.678;2022-07-06T11:34:08;2.78;;;1.38;;
9880;SDS011;4979;51.014;6.678;2022-07-06T11:36:35;2.90;;;1.30;;
9880;SDS011;4979;51.014;6.678;2022-07-06T11:39:01;3.65;;;1.20;;
9880;SDS011;4979;51.014;6.678;2022-07-06T11:41:27;6.82;;;1.63;;
9880;SDS011;4979;51.014;6.678;2022-07-06T11:43:53;24.05;;;2.45;;
9880;SDS011;4979;51.014;6.678;2022-07-06T11:46:23;7.10;;;1.73;;
9880;SDS011;4979;51.014;6.678;2022-07-06T11:49:03;5.80;;;1.67;;
9880;SDS011;4979;51.014;6.678;2022-07-06T11:51:34;2.13;;;1.27;;
9880;SDS011;4979;51.014;6.678;2022-07-06T11:54:06;3.05;;;1.48;;
9880;SDS011;4979;51.014;6.678;2022-07-06T11:56:49;6.38;;;1.42;;
9880;SDS011;4979;51.014;6.678;2022-07-06T11:59:24;2.85;;;1.25;;
9880;SDS011;4979;51.014;6.678;2022-07-06T12:02:04;3.88;;;1.10;;
9880;SDS011;4979;51.014;6.678;2022-07-06T12:04:32;3.08;;;1.15;;
9880;SDS011;4979;51.014;6.678;2022-07-06T12:07:02;3.58;;;1.42;;
9880;SDS011;4979;51.014;6.678;2022-07-06T12:09:35;6.03;;;1.30;;
9880;SDS011;4979;51.014;6.678;2022-07-06T12:12:02;2.60;;;1.13;;
9880;SDS011;4979;51.014;6.678;2022-07-06T12:14:29;5.00;;;1.23;;
9880;SDS011;4979;51.014;6.678;2022-07-06T12:16:56;2.90;;;1.20;;
9880;SDS011;4979;51.014;6.678;2022-07-06T12:19:27;2.35;;;0.80;;
9880;SDS011;4979;51.014;6.678;2022-07-06T12:21:52;4.18;;;1.20;;
9880;SDS011;4979;51.014;6.678;2022-07-06T12:24:19;6.20;;;0.93;;
9880;SDS011;4979;51.014;6.678;2022-07-06T12:26:46;4.38;;;1.38;;
9880;SDS011;4979;51.014;6.678;2022-07-06T12:29:13;2.47;;;1.10;;
9880;SDS011;4979;51.014;6.678;2022-07-06T12:34:12;5.72;;;1.65;;
9880;SDS011;4979;51.014;6.678;2022-07-06T12:36:49;2.47;;;1.02;;
9880;SDS011;4979;51.014;6.678;2022-07-06T12:39:24;8.68;;;1.50;;
9880;SDS011;4979;51.014;6.678;2022-07-06T12:41:52;3.25;;;0.93;;
9880;SDS011;4979;51.014;6.678;2022-07-06T12:44:29;4.60;;;1.20;;
9880;SDS011;4979;51.014;6.678;2022-07-06T12:49:31;5.03;;;1.30;;
9880;SDS011;4979;51.014;6.678;2022-07-06T12:54:40;2.55;;;1.25;;
9880;SDS011;4979;51.014;6.678;2022-07-06T12:57:07;6.00;;;1.17;;
9880;SDS011;4979;51.014;6.678;2022-07-06T12:59:36;3.70;;;1.30;;
9880;SDS011;4979;51.014;6.678;2022-07-06T13:02:07;3.15;;;1.48;;
9880;SDS011;4979;51.014;6.678;2022-07-06T13:04:34;3.88;;;1.33;;
9880;SDS011;4979;51.014;6.678;2022-07-06T13:07:01;7.75;;;1.25;;
9880;SDS011;4979;51.014;6.678;2022-07-06T13:09:29;6.32;;;1.13;;
9880;SDS011;4979;51.014;6.678;2022-07-06T13:11:55;2.67;;;1.05;;
9880;SDS011;4979;51.014;6.678;2022-07-06T13:14:21;5.05;;;1.08;;
9880;SDS011;4979;51.014;6.678;2022-07-06T13:16:47;1.17;;;0.93;;
9880;SDS011;4979;51.014;6.678;2022-07-06T13:19:13;2.20;;;1.13;;
9880;SDS011;4979;51.014;6.678;2022-07-06T13:21:39;2.28;;;1.00;;
9880;SDS011;4979;51.014;6.678;2022-07-06T13:24:05;7.85;;;1.27;;
9880;SDS011;4979;51.014;6.678;2022-07-06T13:26:31;5.13;;;1.20;;
9880;SDS011;4979;51.014;6.678;2022-07-06T13:29:01;3.17;;;0.95;;
9880;SDS011;4979;51.014;6.678;2022-07-06T13:31:28;3.88;;;1.20;;
9880;SDS011;4979;51.014;6.678;2022-07-06T13:33:55;6.78;;;1.40;;
9880;SDS011;4979;51.014;6.678;2022-07-06T13:36:20;3.20;;;1.20;;
9880;SDS011;4979;51.014;6.678;2022-07-06T13:38:46;1.92;;;1.05;;
9880;SDS011;4979;51.014;6.678;2022-07-06T13:41:12;3.20;;;1.00;;
9880;SDS011;4979;51.014;6.678;2022-07-06T13:43:38;3.50;;;1.30;;
9880;SDS011;4979;51.014;6.678;2022-07-06T13:46:04;2.33;;;1.20;;
9880;SDS011;4979;51.014;6.678;2022-07-06T13:48:30;1.70;;;1.33;;
9880;SDS011;4979;51.014;6.678;2022-07-06T13:50:57;3.60;;;1.02;;
9880;SDS011;4979;51.014;6.678;2022-07-06T13:53:23;2.45;;;1.17;;
9880;SDS011;4979;51.014;6.678;2022-07-06T13:55:49;5.65;;;1.25;;
9880;SDS011;4979;51.014;6.678;2022-07-06T13:58:15;2.10;;;1.20;;
9880;SDS011;4979;51.014;6.678;2022-07-06T14:00:41;3.40;;;1.30;;
9880;SDS011;4979;51.014;6.678;2022-07-06T14:03:06;3.65;;;1.20;;
9880;SDS011;4979;51.014;6.678;2022-07-06T14:05:33;2.83;;;1.20;;
9880;SDS011;4979;51.014;6.678;2022-07-06T14:07:59;5.47;;;1.35;;
9880;SDS011;4979;51.014;6.678;2022-07-06T14:10:24;5.93;;;1.42;;
9880;SDS011;4979;51.014;6.678;2022-07-06T14:12:50;3.38;;;1.30;;
9880;SDS011;4979;51.014;6.678;2022-07-06T14:15:16;2.75;;;1.38;;
9880;SDS011;4979;51.014;6.678;2022-07-06T14:17:42;3.20;;;1.40;;
9880;SDS011;4979;51.014;6.678;2022-07-06T14:20:07;2.47;;;1.23;;
9880;SDS011;4979;51.014;6.678;2022-07-06T14:22:33;3.38;;;1.38;;
9880;SDS011;4979;51.014;6.678;2022-07-06T14:24:59;2.22;;;1.15;;
9880;SDS011;4979;51.014;6.678;2022-07-06T14:27:25;5.65;;;1.00;;
9880;SDS011;4979;51.014;6.678;2022-07-06T14:29:51;5.75;;;1.08;;
9880;SDS011;4979;51.014;6.678;2022-07-06T14:32:16;4.75;;;1.30;;
9880;SDS011;4979;51.014;6.678;2022-07-06T14:34:42;3.88;;;1.33;;
9880;SDS011;4979;51.014;6.678;2022-07-06T14:37:08;2.97;;;1.30;;
9880;SDS011;4979;51.014;6.678;2022-07-06T14:39:33;4.22;;;1.25;;
9880;SDS011;4979;51.014;6.678;2022-07-06T14:41:59;5.72;;;1.38;;
9880;SDS011;4979;51.014;6.678;2022-07-06T14:44:24;2.05;;;1.10;;
9880;SDS011;4979;51.014;6.678;2022-07-06T14:46:51;1.52;;;1.42;;
9880;SDS011;4979;51.014;6.678;2022-07-06T14:49:17;7.60;;;1.48;;
9880;SDS011;4979;51.014;6.678;2022-07-06T14:51:43;2.22;;;1.20;;
9880;SDS011;4979;51.014;6.678;2022-07-06T14:54:08;6.55;;;1.40;;
9880;SDS011;4979;51.014;6.678;2022-07-06T14:56:34;3.78;;;1.20;;
9880;SDS011;4979;51.014;6.678;2022-07-06T14:59:00;2.72;;;1.10;;
9880;SDS011;4979;51.014;6.678;2022-07-06T15:01:26;3.30;;;1.10;;
9880;SDS011;4979;51.014;6.678;2022-07-06T15:03:51;4.15;;;1.45;;
9880;SDS011;4979;51.014;6.678;2022-07-06T15:06:17;5.28;;;1.33;;
9880;SDS011;4979;51.014;6.678;2022-07-06T15:08:43;5.28;;;1.10;;
9880;SDS011;4979;51.014;6.678;2022-07-06T15:11:08;3.53;;;1.30;;
9880;SDS011;4979;51.014;6.678;2022-07-06T15:13:34;3.08;;;1.52;;
9880;SDS011;4979;51.014;6.678;2022-07-06T15:16:00;1.67;;;1.20;;
9880;SDS011;4979;51.014;6.678;2022-07-06T15:18:26;2.33;;;1.10;;
9880;SDS011;4979;51.014;6.678;2022-07-06T15:20:51;6.95;;;1.35;;
9880;SDS011;4979;51.014;6.678;2022-07-06T15:23:17;3.03;;;1.05;;
9880;SDS011;4979;51.014;6.678;2022-07-06T15:25:43;3.47;;;1.20;;